Wetterdaten: Woche 06.03.17 - 12.03.17 (KW10)
Datum Zeit Temp. Aussen Temp. o. S. +5cm Feuchte Auss BlattFeu 1 Luftdruck Regen Sonnenschein Regendauer Solar Windben Empfang
06.03.2017 00:00 5,7 C 5,4 C 3,9 C 94 % 0 lf 997,7 hPa 0,0 l/m 0,00 h 0,03 h 0 W/m 20,2 km/h (4 Bft) 97,06 %
06.03.2017 01:00 5,7 C 5,1 C 3,5 C 91 % 0 lf 997,9 hPa 0,0 l/m 0,00 h 0,00 h 0 W/m 20,3 km/h (4 Bft) 98,08 %
06.03.2017 02:00 5,7 C 5,5 C 3,9 C 90 % 0 lf 997,8 hPa 0,0 l/m 0,00 h 0,03 h 0 W/m 14,6 km/h (3 Bft) 92,52 %
06.03.2017 03:00 5,6 C 5,0 C 3,7 C 92 % 13 lf 997,5 hPa 0,8 l/m 0,00 h 1,00 h 0 W/m 14,2 km/h (3 Bft) 97,01 %
06.03.2017 04:00 5,3 C 5,0 C 3,9 C 93 % 15 lf 997,2 hPa 0,0 l/m 0,00 h 0,13 h 0 W/m 15,5 km/h (3 Bft) 96,97 %
06.03.2017 05:00 5,4 C 5,1 C 3,9 C 94 % 7 lf 997,4 hPa 0,0 l/m 0,00 h 0,10 h 0 W/m 17,1 km/h (3 Bft) 95,16 %
06.03.2017 06:00 5,4 C 5,0 C 3,8 C 94 % 0 lf 997,6 hPa 0,0 l/m 0,00 h 0,20 h 0 W/m 19,3 km/h (3 Bft) 96,09 %
06.03.2017 07:00 5,2 C 5,3 C 3,9 C 94 % 0 lf 997,7 hPa 0,0 l/m 0,00 h 0,13 h 9 W/m 16,6 km/h (3 Bft) 95,23 %
06.03.2017 08:00 5,3 C 5,5 C 3,9 C 95 % 4 lf 997,8 hPa 0,0 l/m 0,00 h 0,33 h 26 W/m 15,0 km/h (3 Bft) 95,72 %
06.03.2017 09:00 5,4 C 5,7 C 4,3 C 95 % 15 lf 997,8 hPa 0,2 l/m 0,00 h 0,60 h 46 W/m 19,2 km/h (3 Bft) 97,37 %
06.03.2017 10:00 5,8 C 6,9 C 5,2 C 96 % 7 lf 997,9 hPa 0,0 l/m 0,00 h 0,00 h 104 W/m 19,0 km/h (3 Bft) 96,51 %
06.03.2017 11:00 6,8 C 9,1 C 7,0 C 93 % 0 lf 997,7 hPa 0,0 l/m 0,30 h 0,00 h 191 W/m 19,0 km/h (3 Bft) 93,37 %
06.03.2017 12:00 7,2 C 8,5 C 7,2 C 89 % 0 lf 998,0 hPa 0,0 l/m 0,00 h 0,00 h 129 W/m 18,9 km/h (3 Bft) 96,94 %
06.03.2017 13:00 7,6 C 9,5 C 8,5 C 88 % 0 lf 998,1 hPa 0,0 l/m 0,10 h 0,00 h 201 W/m 15,5 km/h (3 Bft) 97,21 %
06.03.2017 14:00 8,8 C 11,9 C 9,6 C 84 % 1 lf 998,3 hPa 0,0 l/m 0,57 h 0,07 h 265 W/m 17,0 km/h (3 Bft) 95,73 %
06.03.2017 15:00 7,4 C 6,1 C 4,9 C 86 % 15 lf 998,9 hPa 1,8 l/m 0,00 h 0,70 h 30 W/m 9,6 km/h (2 Bft) 93,86 %
06.03.2017 16:00 6,7 C 7,0 C 5,7 C 92 % 15 lf 999,6 hPa 0,0 l/m 0,10 h 0,10 h 55 W/m 7,7 km/h (2 Bft) 98,08 %
06.03.2017 17:00 6,8 C 6,6 C 5,4 C 93 % 15 lf 1000,6 hPa 0,0 l/m 0,00 h 0,03 h 20 W/m 11,3 km/h (2 Bft) 95,46 %
06.03.2017 18:00 6,4 C 6,1 C 4,8 C 93 % 11 lf 1001,7 hPa 0,0 l/m 0,00 h 0,00 h 3 W/m 14,2 km/h (3 Bft) 95,81 %
06.03.2017 19:00 6,0 C 5,5 C 3,7 C 93 % 1 lf 1002,8 hPa 0,0 l/m 0,00 h 0,00 h 0 W/m 10,4 km/h (2 Bft) 96,23 %
06.03.2017 20:00 5,7 C 5,6 C 3,9 C 93 % 0 lf 1003,9 hPa 0,0 l/m 0,00 h 0,00 h 0 W/m 8,7 km/h (2 Bft) 95,44 %
06.03.2017 21:00 5,7 C 5,6 C 4,0 C 94 % 0 lf 1004,9 hPa 0,0 l/m 0,00 h 0,00 h 0 W/m 14,4 km/h (3 Bft) 96,87 %
06.03.2017 22:00 5,5 C 5,3 C 3,6 C 95 % 0 lf 1005,7 hPa 0,0 l/m 0,00 h 0,00 h 0 W/m 12,0 km/h (2 Bft) 97,15 %
06.03.2017 23:00 4,9 C 4,4 C 2,8 C 95 % 0 lf 1006,4 hPa 0,0 l/m 0,00 h 0,00 h 0 W/m 9,9 km/h (2 Bft) 93,45 %
07.03.2017 00:00 4,3 C 4,0 C 2,5 C 95 % 1 lf 1007,1 hPa 0,0 l/m 0,00 h 0,00 h 1 W/m 10,4 km/h (2 Bft) 92,62 %
07.03.2017 01:00 4,7 C 4,9 C 3,6 C 96 % 0 lf 1007,8 hPa 0,0 l/m 0,00 h 0,00 h 0 W/m 11,9 km/h (2 Bft) 97,37 %
07.03.2017 02:00 5,2 C 5,5 C 3,9 C 97 % 1 lf 1008,5 hPa 0,0 l/m 0,00 h 0,03 h 0 W/m 12,7 km/h (3 Bft) 95,94 %
07.03.2017 03:00 5,3 C 5,6 C 3,9 C 97 % 0 lf 1008,8 hPa 0,0 l/m 0,00 h 0,00 h 0 W/m 11,3 km/h (2 Bft) 95,87 %
07.03.2017 04:00 5,3 C 5,5 C 3,9 C 97 % 4 lf 1009,2 hPa 0,2 l/m 0,00 h 0,37 h 0 W/m 13,5 km/h (3 Bft) 94,43 %
07.03.2017 05:00 4,9 C 4,6 C 3,3 C 97 % 15 lf 1009,7 hPa 0,2 l/m 0,00 h 0,20 h 0 W/m 12,4 km/h (3 Bft) 97,08 %
07.03.2017 06:00 4,7 C 4,8 C 3,3 C 97 % 15 lf 1010,4 hPa 0,0 l/m 0,00 h 0,13 h 0 W/m 8,6 km/h (2 Bft) 95,64 %
07.03.2017 07:00 4,8 C 5,0 C 3,8 C 97 % 15 lf 1011,0 hPa 0,0 l/m 0,00 h 0,00 h 7 W/m 9,6 km/h (2 Bft) 96,25 %
07.03.2017 08:00 5,1 C 5,5 C 4,2 C 97 % 15 lf 1011,9 hPa 0,0 l/m 0,00 h 0,30 h 32 W/m 11,0 km/h (2 Bft) 95,95 %
07.03.2017 09:00 5,6 C 6,1 C 4,7 C 98 % 15 lf 1012,5 hPa 0,0 l/m 0,00 h 0,33 h 52 W/m 11,7 km/h (2 Bft) 94,55 %
07.03.2017 10:00 6,1 C 6,8 C 5,5 C 98 % 6 lf 1012,9 hPa 0,0 l/m 0,00 h 0,00 h 75 W/m 14,6 km/h (3 Bft) 98,73 %
07.03.2017 11:00 6,5 C 7,5 C 6,4 C 97 % 0 lf 1013,3 hPa 0,0 l/m 0,00 h 0,00 h 112 W/m 13,5 km/h (3 Bft) 94,94 %
07.03.2017 12:00 7,4 C 9,3 C 8,3 C 95 % 0 lf 1013,6 hPa 0,0 l/m 0,10 h 0,00 h 162 W/m 14,5 km/h (3 Bft) 94,63 %
07.03.2017 13:00 8,2 C 9,8 C 8,3 C 90 % 4 lf 1014,1 hPa 0,0 l/m 0,00 h 0,47 h 163 W/m 15,0 km/h (3 Bft) 97,15 %
07.03.2017 14:00 8,8 C 11,4 C 9,4 C 87 % 1 lf 1014,3 hPa 0,0 l/m 0,23 h 0,13 h 201 W/m 15,9 km/h (3 Bft) 96,30 %
07.03.2017 15:00 7,5 C 7,5 C 5,8 C 85 % 12 lf 1015,0 hPa 1,8 l/m 0,17 h 0,47 h 108 W/m 13,6 km/h (3 Bft) 95,31 %
07.03.2017 16:00 6,9 C 8,2 C 5,7 C 92 % 15 lf 1015,2 hPa 0,0 l/m 0,33 h 0,00 h 100 W/m 8,4 km/h (2 Bft) 97,30 %
07.03.2017 17:00 7,6 C 7,8 C 5,4 C 91 % 7 lf 1015,6 hPa 0,0 l/m 0,10 h 0,00 h 45 W/m 12,8 km/h (3 Bft) 95,01 %
07.03.2017 18:00 7,1 C 6,5 C 4,2 C 89 % 0 lf 1016,4 hPa 0,0 l/m 0,00 h 0,03 h 8 W/m 8,4 km/h (2 Bft) 97,12 %
07.03.2017 19:00 6,3 C 5,2 C 3,1 C 89 % 0 lf 1017,1 hPa 0,0 l/m 0,00 h 0,00 h 0 W/m 6,0 km/h (2 Bft) 95,73 %
07.03.2017 20:00 5,1 C 3,6 C 1,2 C 89 % 2 lf 1017,8 hPa 0,0 l/m 0,00 h 0,00 h 2 W/m 3,8 km/h (1 Bft) 96,01 %
07.03.2017 21:00 3,9 C 3,1 C 0,5 C 90 % 8 lf 1018,5 hPa 0,0 l/m 0,00 h 0,00 h 3 W/m 3,8 km/h (1 Bft) 95,25 %
07.03.2017 22:00 3,1 C 2,3 C 0,2 C 92 % 14 lf 1018,9 hPa 0,0 l/m 0,00 h 0,00 h 4 W/m 2,0 km/h (1 Bft) 96,74 %
07.03.2017 23:00 2,4 C 1,8 C -0,4 C 93 % 15 lf 1019,4 hPa 0,0 l/m 0,00 h 0,00 h 0 W/m 2,2 km/h (1 Bft) 97,88 %
08.03.2017 00:00 2,0 C 1,9 C -0,4 C 94 % 15 lf 1019,4 hPa 0,0 l/m 0,00 h 0,00 h 0 W/m 6,2 km/h (2 Bft) 92,13 %
08.03.2017 01:00 2,2 C 2,0 C -0,4 C 95 % 15 lf 1019,1 hPa 0,0 l/m 0,00 h 0,00 h 0 W/m 5,5 km/h (1 Bft) 97,45 %
08.03.2017 02:00 2,1 C 2,1 C -0,0 C 96 % 15 lf 1019,0 hPa 0,0 l/m 0,00 h 0,00 h 0 W/m 5,2 km/h (1 Bft) 96,93 %
08.03.2017 03:00 2,3 C 2,2 C 0,4 C 96 % 15 lf 1018,6 hPa 0,0 l/m 0,00 h 0,00 h 0 W/m 6,9 km/h (2 Bft) 95,64 %
08.03.2017 04:00 2,6 C 2,7 C 1,0 C 97 % 15 lf 1018,4 hPa 0,0 l/m 0,00 h 0,00 h 0 W/m 11,5 km/h (2 Bft) 95,04 %
08.03.2017 05:00 2,7 C 2,9 C 1,1 C 97 % 15 lf 1017,3 hPa 0,0 l/m 0,00 h 0,00 h 0 W/m 12,8 km/h (3 Bft) 96,08 %
08.03.2017 06:00 2,8 C 3,4 C 1,6 C 97 % 15 lf 1017,5 hPa 0,0 l/m 0,00 h 0,00 h 16 W/m 12,1 km/h (2 Bft) 95,51 %
08.03.2017 07:00 3,3 C 4,1 C 2,1 C 97 % 11 lf 1017,2 hPa 0,0 l/m 0,00 h 0,00 h 22 W/m 18,5 km/h (3 Bft) 97,51 %
08.03.2017 08:00 4,1 C 4,9 C 3,1 C 95 % 0 lf 1016,2 hPa 0,0 l/m 0,00 h 0,00 h 52 W/m 21,3 km/h (4 Bft) 95,38 %
08.03.2017 09:00 4,7 C 4,8 C 3,4 C 93 % 3 lf 1015,5 hPa 1,0 l/m 0,00 h 0,70 h 52 W/m 18,3 km/h (3 Bft) 94,81 %
08.03.2017 10:00 4,8 C 4,6 C 3,6 C 94 % 6 lf 1014,4 hPa 2,0 l/m 0,00 h 1,00 h 71 W/m 19,1 km/h (3 Bft) 95,38 %
08.03.2017 11:00 5,1 C 5,0 C 4,0 C 96 % 13 lf 1014,0 hPa 1,8 l/m 0,00 h 1,00 h 96 W/m 27,1 km/h (4 Bft) 97,31 %
08.03.2017 12:00 5,1 C 5,0 C 4,0 C 97 % 15 lf 1013,7 hPa 1,6 l/m 0,00 h 1,00 h 99 W/m 28,7 km/h (4 Bft) 95,26 %
08.03.2017 13:00 5,4 C 5,6 C 4,4 C 97 % 15 lf 1012,7 hPa 0,8 l/m 0,00 h 1,00 h 105 W/m 25,4 km/h (4 Bft) 94,16 %
08.03.2017 14:00 5,6 C 5,7 C 4,6 C 98 % 15 lf 1011,7 hPa 1,2 l/m 0,00 h 1,00 h 78 W/m 22,1 km/h (4 Bft) 98,00 %
08.03.2017 15:00 6,0 C 6,2 C 5,1 C 98 % 15 lf 1011,3 hPa 3,0 l/m 0,00 h 1,00 h 62 W/m 14,1 km/h (3 Bft) 94,31 %
08.03.2017 16:00 6,9 C 7,4 C 6,2 C 98 % 15 lf 1010,8 hPa 1,0 l/m 0,00 h 0,97 h 60 W/m 13,7 km/h (3 Bft) 97,05 %
08.03.2017 17:00 8,5 C 8,6 C 7,2 C 99 % 15 lf 1010,6 hPa 0,6 l/m 0,00 h 0,87 h 44 W/m 18,2 km/h (3 Bft) 95,80 %
08.03.2017 18:00 9,1 C 9,2 C 7,8 C 99 % 15 lf 1011,1 hPa 0,4 l/m 0,00 h 0,57 h 7 W/m 19,3 km/h (3 Bft) 94,45 %
08.03.2017 19:00 9,5 C 9,4 C 7,8 C 99 % 15 lf 1012,0 hPa 0,0 l/m 0,00 h 0,47 h 4 W/m 14,6 km/h (3 Bft) 97,36 %
08.03.2017 20:00 9,6 C 9,5 C 8,0 C 99 % 15 lf 1012,8 hPa 0,2 l/m 0,00 h 0,10 h 4 W/m 17,8 km/h (3 Bft) 97,72 %
08.03.2017 21:00 9,1 C 8,8 C 7,1 C 99 % 15 lf 1013,7 hPa 0,0 l/m 0,00 h 0,00 h 0 W/m 15,1 km/h (3 Bft) 92,45 %
08.03.2017 22:00 8,4 C 8,0 C 6,1 C 99 % 15 lf 1014,7 hPa 0,0 l/m 0,00 h 0,00 h 0 W/m 11,0 km/h (2 Bft) 97,73 %
08.03.2017 23:00 7,7 C 7,2 C 5,2 C 99 % 15 lf 1015,4 hPa 0,0 l/m 0,00 h 0,13 h 0 W/m 12,7 km/h (3 Bft) 96,65 %
09.03.2017 00:00 7,1 C 6,1 C 3,8 C 99 % 15 lf 1016,0 hPa 0,0 l/m 0,00 h 0,00 h 0 W/m 8,0 km/h (2 Bft) 94,86 %
09.03.2017 01:00 6,3 C 5,3 C 2,7 C 99 % 15 lf 1016,6 hPa 0,0 l/m 0,00 h 0,00 h 0 W/m 5,8 km/h (2 Bft) 96,52 %
09.03.2017 02:00 5,1 C 3,5 C 1,2 C 98 % 15 lf 1016,9 hPa 0,0 l/m 0,00 h 0,03 h 0 W/m 1,0 km/h (0 Bft) 95,73 %
09.03.2017 03:00 4,2 C 4,4 C 2,3 C 98 % 15 lf 1016,9 hPa 0,0 l/m 0,00 h 0,03 h 4 W/m 4,9 km/h (1 Bft) 96,72 %
09.03.2017 04:00 4,3 C 4,4 C 2,9 C 99 % 15 lf 1017,0 hPa 0,0 l/m 0,00 h 0,00 h 4 W/m 3,9 km/h (1 Bft) 96,21 %
09.03.2017 05:00 4,3 C 4,4 C 3,1 C 99 % 15 lf 1016,7 hPa 0,0 l/m 0,00 h 0,00 h 4 W/m 5,1 km/h (1 Bft) 95,30 %
09.03.2017 06:00 4,6 C 5,1 C 3,7 C 99 % 15 lf 1016,6 hPa 0,0 l/m 0,00 h 0,00 h 4 W/m 9,1 km/h (2 Bft) 95,31 %
09.03.2017 07:00 5,6 C 6,2 C 4,7 C 99 % 15 lf 1016,6 hPa 0,4 l/m 0,00 h 0,43 h 12 W/m 7,8 km/h (2 Bft) 96,44 %
09.03.2017 08:00 6,4 C 6,8 C 5,6 C 99 % 15 lf 1016,4 hPa 0,8 l/m 0,00 h 0,83 h 35 W/m 10,8 km/h (2 Bft) 97,29 %
09.03.2017 09:00 7,5 C 8,1 C 7,3 C 100 % 15 lf 1016,0 hPa 0,0 l/m 0,00 h 0,20 h 98 W/m 11,0 km/h (2 Bft) 93,81 %
09.03.2017 10:00 8,9 C 9,7 C 8,4 C 100 % 15 lf 1016,2 hPa 0,2 l/m 0,00 h 0,20 h 90 W/m 10,1 km/h (2 Bft) 95,52 %
09.03.2017 11:00 10,8 C 11,8 C 10,9 C 100 % 15 lf 1016,2 hPa 0,0 l/m 0,13 h 0,13 h 211 W/m 23,3 km/h (4 Bft) 98,57 %
09.03.2017 12:00 11,0 C 11,6 C 10,4 C 100 % 11 lf 1016,3 hPa 0,0 l/m 0,00 h 0,23 h 77 W/m 23,4 km/h (4 Bft) 94,24 %
09.03.2017 13:00 11,4 C 12,3 C 10,9 C 100 % 10 lf 1016,3 hPa 0,8 l/m 0,13 h 0,43 h 165 W/m 26,8 km/h (4 Bft) 95,58 %
09.03.2017 14:00 12,1 C 13,2 C 11,3 C 99 % 10 lf 1016,7 hPa 0,0 l/m 0,40 h 0,00 h 205 W/m 26,3 km/h (4 Bft) 96,49 %
09.03.2017 15:00 13,2 C 17,4 C 12,3 C 89 % 0 lf 1017,2 hPa 0,0 l/m 0,90 h 0,00 h 394 W/m 28,5 km/h (4 Bft) 95,45 %
09.03.2017 16:00 13,2 C 17,1 C 11,4 C 77 % 0 lf 1017,5 hPa 0,0 l/m 0,80 h 0,00 h 239 W/m 33,8 km/h (5 Bft) 95,38 %
09.03.2017 17:00 12,1 C 12,2 C 10,0 C 76 % 0 lf 1018,2 hPa 0,0 l/m 0,80 h 0,00 h 102 W/m 30,3 km/h (5 Bft) 97,37 %
09.03.2017 18:00 10,5 C 10,1 C 8,0 C 76 % 0 lf 1019,4 hPa 0,0 l/m 0,30 h 0,00 h 29 W/m 28,9 km/h (5 Bft) 94,73 %
09.03.2017 19:00 9,0 C 8,3 C 6,2 C 77 % 0 lf 1020,6 hPa 0,0 l/m 0,00 h 0,00 h 0 W/m 21,8 km/h (4 Bft) 97,29 %
09.03.2017 20:00 8,1 C 7,5 C 5,6 C 80 % 0 lf 1021,2 hPa 0,0 l/m 0,00 h 0,00 h 0 W/m 17,4 km/h (3 Bft) 94,59 %
09.03.2017 21:00 7,6 C 7,2 C 5,4 C 82 % 0 lf 1022,1 hPa 0,0 l/m 0,00 h 0,00 h 0 W/m 24,3 km/h (4 Bft) 95,30 %
09.03.2017 22:00 7,1 C 7,1 C 5,4 C 85 % 0 lf 1023,2 hPa 0,0 l/m 0,00 h 0,00 h 0 W/m 17,8 km/h (3 Bft) 97,29 %
09.03.2017 23:00 6,8 C 6,6 C 5,1 C 87 % 0 lf 1023,8 hPa 0,0 l/m 0,00 h 0,00 h 0 W/m 13,8 km/h (3 Bft) 96,16 %
10.03.2017 00:00 6,1 C 5,2 C 3,4 C 88 % 0 lf 1024,6 hPa 0,0 l/m 0,00 h 0,00 h 2 W/m 10,3 km/h (2 Bft) 93,15 %
10.03.2017 01:00 5,8 C 6,1 C 4,4 C 90 % 0 lf 1025,6 hPa 0,0 l/m 0,00 h 0,00 h 0 W/m 12,9 km/h (3 Bft) 97,91 %
10.03.2017 02:00 5,8 C 5,9 C 4,3 C 90 % 0 lf 1025,9 hPa 0,0 l/m 0,00 h 0,00 h 0 W/m 8,0 km/h (2 Bft) 95,75 %
10.03.2017 03:00 5,5 C 5,1 C 3,4 C 90 % 0 lf 1026,1 hPa 0,0 l/m 0,00 h 0,00 h 0 W/m 6,0 km/h (2 Bft) 96,42 %
10.03.2017 04:00 5,1 C 5,0 C 3,3 C 90 % 0 lf 1026,4 hPa 0,0 l/m 0,00 h 0,00 h 0 W/m 5,2 km/h (1 Bft) 95,39 %
10.03.2017 05:00 4,8 C 4,0 C 2,2 C 90 % 0 lf 1026,5 hPa 0,0 l/m 0,00 h 0,00 h 3 W/m 4,7 km/h (1 Bft) 94,88 %
10.03.2017 06:00 3,8 C 2,7 C 0,8 C 89 % 1 lf 1026,9 hPa 0,0 l/m 0,00 h 0,00 h 12 W/m 3,2 km/h (1 Bft) 96,94 %
10.03.2017 07:00 3,4 C 3,7 C 2,2 C 91 % 0 lf 1027,4 hPa 0,0 l/m 0,27 h 0,00 h 39 W/m 4,5 km/h (1 Bft) 95,73 %
10.03.2017 08:00 4,1 C 6,1 C 4,4 C 93 % 0 lf 1027,7 hPa 0,0 l/m 0,30 h 0,00 h 105 W/m 3,1 km/h (1 Bft) 97,58 %
10.03.2017 09:00 5,8 C 11,5 C 8,2 C 94 % 0 lf 1028,2 hPa 0,0 l/m 0,95 h 0,00 h 271 W/m 7,2 km/h (2 Bft) 91,49 %
10.03.2017 10:00 8,1 C 16,9 C 11,5 C 83 % 0 lf 1028,3 hPa 0,0 l/m 0,70 h 0,00 h 438 W/m 7,6 km/h (2 Bft) 96,94 %
10.03.2017 11:00 9,5 C 21,2 C 10,7 C 74 % 0 lf 1028,3 hPa 0,0 l/m 0,90 h 0,00 h 584 W/m 6,7 km/h (2 Bft) 96,10 %
10.03.2017 12:00 10,8 C 21,9 C 9,9 C 68 % 0 lf 1027,8 hPa 0,0 l/m 1,00 h 0,00 h 663 W/m 8,8 km/h (2 Bft) 95,54 %
10.03.2017 13:00 11,7 C 21,0 C 9,3 C 61 % 0 lf 1027,5 hPa 0,0 l/m 1,00 h 0,00 h 603 W/m 9,4 km/h (2 Bft) 94,52 %
10.03.2017 14:00 11,7 C 20,9 C 10,7 C 61 % 0 lf 1026,8 hPa 0,0 l/m 1,00 h 0,00 h 453 W/m 8,2 km/h (2 Bft) 96,01 %
10.03.2017 15:00 11,5 C 16,1 C 10,7 C 61 % 0 lf 1026,3 hPa 0,0 l/m 1,00 h 0,00 h 294 W/m 7,5 km/h (2 Bft) 97,43 %
10.03.2017 16:00 10,8 C 13,2 C 9,4 C 62 % 0 lf 1026,0 hPa 0,0 l/m 0,50 h 0,00 h 148 W/m 8,7 km/h (2 Bft) 95,30 %
10.03.2017 17:00 9,9 C 10,1 C 7,2 C 64 % 0 lf 1025,9 hPa 0,0 l/m 0,13 h 0,00 h 39 W/m 6,4 km/h (2 Bft) 95,36 %
10.03.2017 18:00 8,8 C 7,5 C 4,6 C 68 % 0 lf 1025,7 hPa 0,0 l/m 0,27 h 0,00 h 18 W/m 4,0 km/h (1 Bft) 96,30 %
10.03.2017 19:00 7,2 C 5,0 C 2,2 C 73 % 0 lf 1025,8 hPa 0,0 l/m 0,00 h 0,00 h 3 W/m 0,7 km/h (0 Bft) 94,90 %
10.03.2017 20:00 5,5 C 3,6 C 1,1 C 78 % 0 lf 1025,7 hPa 0,0 l/m 0,00 h 0,00 h 4 W/m 0,1 km/h (0 Bft) 95,14 %
10.03.2017 21:00 4,1 C 2,8 C 1,0 C 82 % 0 lf 1025,5 hPa 0,0 l/m 0,00 h 0,00 h 4 W/m 0,0 km/h (0 Bft) 97,99 %
10.03.2017 22:00 3,9 C 3,7 C 2,1 C 88 % 0 lf 1025,1 hPa 0,0 l/m 0,00 h 0,00 h 5 W/m 0,0 km/h (0 Bft) 96,26 %
10.03.2017 23:00 3,7 C 3,0 C 1,0 C 89 % 0 lf 1024,9 hPa 0,0 l/m 0,00 h 0,00 h 0 W/m 0,0 km/h (0 Bft) 94,93 %
11.03.2017 00:00 3,3 C 3,6 C 0,5 C 90 % 0 lf 1024,3 hPa 0,0 l/m 0,00 h 0,00 h 0 W/m 6,0 km/h (2 Bft) 94,67 %
11.03.2017 01:00 3,6 C 4,3 C 1,5 C 91 % 0 lf 1024,1 hPa 0,0 l/m 0,00 h 0,00 h 0 W/m 7,4 km/h (2 Bft) 96,81 %
11.03.2017 02:00 4,3 C 5,3 C 3,2 C 89 % 0 lf 1023,8 hPa 0,0 l/m 0,00 h 0,00 h 0 W/m 11,8 km/h (2 Bft) 95,95 %
11.03.2017 03:00 5,1 C 5,4 C 3,5 C 86 % 0 lf 1023,1 hPa 0,0 l/m 0,00 h 0,00 h 0 W/m 15,1 km/h (3 Bft) 95,01 %
11.03.2017 04:00 4,9 C 5,0 C 3,3 C 86 % 0 lf 1022,9 hPa 0,0 l/m 0,00 h 0,00 h 0 W/m 10,9 km/h (2 Bft) 96,63 %
11.03.2017 05:00 4,8 C 4,7 C 2,8 C 86 % 0 lf 1022,8 hPa 0,0 l/m 0,00 h 0,00 h 0 W/m 8,3 km/h (2 Bft) 93,67 %
11.03.2017 06:00 4,2 C 4,1 C 1,8 C 87 % 0 lf 1022,3 hPa 0,0 l/m 0,00 h 0,00 h 4 W/m 10,6 km/h (2 Bft) 98,08 %
11.03.2017 07:00 3,9 C 4,5 C 2,1 C 88 % 0 lf 1022,1 hPa 0,0 l/m 0,23 h 0,00 h 38 W/m 13,7 km/h (3 Bft) 96,44 %
11.03.2017 08:00 5,1 C 8,4 C 4,5 C 86 % 0 lf 1021,9 hPa 0,0 l/m 1,00 h 0,00 h 202 W/m 15,3 km/h (3 Bft) 93,74 %
11.03.2017 09:00 7,8 C 12,1 C 9,8 C 78 % 0 lf 1021,9 hPa 0,0 l/m 1,00 h 0,00 h 317 W/m 15,0 km/h (3 Bft) 96,72 %
11.03.2017 10:00 9,3 C 13,3 C 11,5 C 74 % 0 lf 1021,5 hPa 0,0 l/m 1,00 h 0,00 h 399 W/m 13,9 km/h (3 Bft) 97,15 %
11.03.2017 11:00 11,1 C 15,8 C 13,0 C 69 % 0 lf 1021,3 hPa 0,0 l/m 1,00 h 0,00 h 461 W/m 14,7 km/h (3 Bft) 93,46 %
11.03.2017 12:00 12,2 C 15,4 C 13,4 C 64 % 0 lf 1020,7 hPa 0,0 l/m 0,97 h 0,00 h 416 W/m 13,4 km/h (3 Bft) 97,35 %
11.03.2017 13:00 13,0 C 16,4 C 13,7 C 59 % 0 lf 1020,1 hPa 0,0 l/m 0,98 h 0,00 h 409 W/m 15,1 km/h (3 Bft) 96,28 %
11.03.2017 14:00 13,9 C 17,0 C 13,9 C 54 % 0 lf 1019,6 hPa 0,0 l/m 1,00 h 0,00 h 389 W/m 10,8 km/h (2 Bft) 94,65 %
11.03.2017 15:00 13,5 C 15,0 C 12,9 C 52 % 0 lf 1019,1 hPa 0,0 l/m 1,00 h 0,00 h 251 W/m 10,4 km/h (2 Bft) 97,02 %
11.03.2017 16:00 13,4 C 14,3 C 11,6 C 53 % 0 lf 1018,6 hPa 0,0 l/m 1,00 h 0,00 h 176 W/m 7,5 km/h (2 Bft) 95,24 %
11.03.2017 17:00 13,1 C 13,8 C 10,0 C 55 % 0 lf 1018,1 hPa 0,0 l/m 0,97 h 0,00 h 149 W/m 2,0 km/h (1 Bft) 94,90 %
11.03.2017 18:00 11,7 C 9,3 C 5,8 C 64 % 0 lf 1018,1 hPa 0,0 l/m 0,37 h 0,00 h 39 W/m 0,6 km/h (0 Bft) 97,71 %
11.03.2017 19:00 9,0 C 6,9 C 3,6 C 71 % 0 lf 1018,2 hPa 0,0 l/m 0,00 h 0,00 h 4 W/m 3,5 km/h (1 Bft) 94,94 %
11.03.2017 20:00 7,2 C 5,3 C 2,6 C 74 % 0 lf 1017,8 hPa 0,0 l/m 0,00 h 0,00 h 5 W/m 1,1 km/h (1 Bft) 95,31 %
11.03.2017 21:00 6,1 C 6,5 C 3,2 C 79 % 0 lf 1017,5 hPa 0,0 l/m 0,00 h 0,00 h 5 W/m 10,3 km/h (2 Bft) 95,97 %
11.03.2017 22:00 7,3 C 8,2 C 5,2 C 73 % 0 lf 1017,5 hPa 0,0 l/m 0,00 h 0,00 h 0 W/m 17,2 km/h (3 Bft) 95,59 %
11.03.2017 23:00 8,0 C 8,0 C 5,5 C 69 % 0 lf 1017,3 hPa 0,0 l/m 0,00 h 0,00 h 0 W/m 19,0 km/h (3 Bft) 96,32 %
12.03.2017 00:00 7,6 C 7,5 C 5,2 C 69 % 0 lf 1016,8 hPa 0,0 l/m 0,00 h 0,00 h 0 W/m 20,1 km/h (4 Bft) 96,09 %
12.03.2017 01:00 7,2 C 7,1 C 4,8 C 71 % 0 lf 1016,3 hPa 0,0 l/m 0,00 h 0,00 h 0 W/m 16,9 km/h (3 Bft) 93,47 %
12.03.2017 02:00 6,6 C 6,5 C 4,2 C 73 % 0 lf 1016,0 hPa 0,0 l/m 0,00 h 0,00 h 0 W/m 16,6 km/h (3 Bft) 96,80 %
12.03.2017 03:00 6,2 C 6,3 C 3,9 C 74 % 0 lf 1015,6 hPa 0,0 l/m 0,00 h 0,00 h 0 W/m 16,2 km/h (3 Bft) 97,95 %
12.03.2017 04:00 6,1 C 6,1 C 3,9 C 73 % 0 lf 1015,2 hPa 0,0 l/m 0,00 h 0,00 h 0 W/m 17,6 km/h (3 Bft) 92,67 %
12.03.2017 05:00 6,1 C 6,3 C 4,2 C 72 % 0 lf 1014,9 hPa 0,0 l/m 0,00 h 0,00 h 0 W/m 19,2 km/h (3 Bft) 97,83 %
12.03.2017 06:00 6,1 C 6,2 C 4,1 C 71 % 0 lf 1014,6 hPa 0,0 l/m 0,00 h 0,00 h 7 W/m 18,3 km/h (3 Bft) 97,32 %
12.03.2017 07:00 6,3 C 6,8 C 4,7 C 71 % 0 lf 1014,6 hPa 0,0 l/m 0,13 h 0,00 h 39 W/m 23,4 km/h (4 Bft) 95,45 %
12.03.2017 08:00 6,8 C 7,8 C 5,9 C 69 % 0 lf 1014,7 hPa 0,0 l/m 0,13 h 0,00 h 111 W/m 26,6 km/h (4 Bft) 95,52 %
12.03.2017 09:00 7,9 C 11,0 C 8,4 C 67 % 0 lf 1014,6 hPa 0,0 l/m 1,00 h 0,00 h 271 W/m 27,5 km/h (4 Bft) 95,66 %
12.03.2017 10:00 9,4 C 12,2 C 10,7 C 64 % 0 lf 1014,5 hPa 0,0 l/m 0,98 h 0,00 h 407 W/m 26,2 km/h (4 Bft) 95,00 %
12.03.2017 11:00 10,7 C 12,9 C 11,6 C 58 % 0 lf 1014,2 hPa 0,0 l/m 1,00 h 0,00 h 624 W/m 27,6 km/h (4 Bft) 96,97 %
12.03.2017 12:00 12,1 C 14,6 C 13,5 C 53 % 0 lf 1013,9 hPa 0,0 l/m 1,00 h 0,00 h 382 W/m 25,8 km/h (4 Bft) 95,56 %
12.03.2017 13:00 13,2 C 15,4 C 13,7 C 49 % 0 lf 1013,6 hPa 0,0 l/m 1,00 h 0,00 h 359 W/m 23,2 km/h (4 Bft) 95,16 %
12.03.2017 14:00 13,5 C 15,7 C 13,1 C 50 % 0 lf 1013,2 hPa 0,0 l/m 1,00 h 0,00 h 291 W/m 19,5 km/h (3 Bft) 97,58 %
12.03.2017 15:00 15,2 C 20,2 C 14,7 C 46 % 0 lf 1013,0 hPa 0,0 l/m 0,97 h 0,00 h 449 W/m 23,8 km/h (4 Bft) 94,44 %
12.03.2017 16:00 15,8 C 18,9 C 14,6 C 44 % 0 lf 1012,9 hPa 0,0 l/m 0,98 h 0,00 h 324 W/m 21,0 km/h (4 Bft) 96,99 %
12.03.2017 17:00 15,1 C 15,4 C 12,7 C 45 % 0 lf 1013,2 hPa 0,0 l/m 0,70 h 0,00 h 135 W/m 17,1 km/h (3 Bft) 96,68 %
12.03.2017 18:00 13,6 C 12,2 C 8,5 C 48 % 0 lf 1013,9 hPa 0,0 l/m 0,10 h 0,00 h 15 W/m 8,4 km/h (2 Bft) 95,71 %
12.03.2017 19:00 11,1 C 9,3 C 4,8 C 56 % 0 lf 1014,7 hPa 0,0 l/m 0,00 h 0,00 h 0 W/m 6,2 km/h (2 Bft) 96,09 %
12.03.2017 20:00 10,0 C 10,5 C 6,5 C 59 % 0 lf 1015,2 hPa 0,0 l/m 0,00 h 0,00 h 0 W/m 14,0 km/h (3 Bft) 96,80 %
12.03.2017 21:00 10,0 C 9,8 C 6,9 C 59 % 0 lf 1015,6 hPa 0,0 l/m 0,00 h 0,00 h 0 W/m 16,6 km/h (3 Bft) 95,45 %
12.03.2017 22:00 9,1 C 8,5 C 5,4 C 62 % 0 lf 1016,2 hPa 0,0 l/m 0,00 h 0,00 h 0 W/m 10,9 km/h (2 Bft) 94,94 %
12.03.2017 23:00 8,0 C 7,5 C 4,1 C 64 % 0 lf 1016,7 hPa 0,0 l/m 0,00 h 0,00 h 0 W/m 11,3 km/h (2 Bft) 96,87 %
Min-Datum _ 08.03.17 08.03.17 08.03.17 12.03.17 06.03.17 06.03.17 - - - - 07.03.17 07.03.17
_ Min-Zeit 00:34 00:06 01:44 15:58 00:08 04:42 - - - - 19:54 00:02
Minimum _ 1,9 C 1,1 C -1,1 C 43 % 0 lf 997,1 hPa - - - - 0,0 km/h (0 Bft) 7,14 %
Max-Datum _ 12.03.17 10.03.17 12.03.17 09.03.17 06.03.17 10.03.17 08.03.17 06.03.17 06.03.17 10.03.17 08.03.17 06.03.17
_ Max-Zeit 15:58 11:22 15:36 09:16 03:22 10:58 15:02 11:04 00:24 12:48 11:56 00:38
Maximum _ 16,1 C 25,0 C 15,6 C 100 % 15 lf 1028,5 hPa 3,0 l/m 0,03 h 0,03 h 796 W/m 43,9 km/h
S (6 Bft)
100,00 %
Durchschnitt _ 7,2 C 7,9 C 5,6 C 84 % 5 lf 1015,4 hPa #20,8 l/m #33:00 h #18:18 h 140 W/m 13,2 km/h (3 Bft) 95,89 %
© 2017 W. Hausmann